createdAt,value
2019-03-01T00:00:57.688Z,82.31
2019-03-01T00:01:57.638Z,82.50
2019-03-01T00:02:57.586Z,82.41
2019-03-01T00:03:57.723Z,82.41
2019-03-01T00:04:57.489Z,81.93
2019-03-01T00:05:57.447Z,82.31
2019-03-01T00:06:57.389Z,82.03
2019-03-01T00:07:57.338Z,81.84
2019-03-01T00:08:57.297Z,81.55
2019-03-01T00:09:57.242Z,81.46
2019-03-01T00:10:57.190Z,81.65
2019-03-01T00:11:57.140Z,81.55
2019-03-01T00:12:57.109Z,81.55
2019-03-01T00:13:57.042Z,81.55
2019-03-01T00:14:56.993Z,81.46
2019-03-01T00:15:56.942Z,81.07
2019-03-01T00:16:57.039Z,81.17
2019-03-01T00:17:56.845Z,81.55
2019-03-01T00:18:56.791Z,81.26
2019-03-01T00:19:56.739Z,80.88
2019-03-01T00:20:56.692Z,81.65
2019-03-01T00:21:56.639Z,82.12
2019-03-01T00:22:56.594Z,81.17
2019-03-01T00:23:56.544Z,81.55
2019-03-01T00:24:56.491Z,82.21
2019-03-01T00:25:56.444Z,82.12
2019-03-01T00:26:56.413Z,81.55
2019-03-01T00:27:56.347Z,82.03
2019-03-01T00:28:56.296Z,81.84
2019-03-01T00:29:56.449Z,81.65
2019-03-01T00:30:56.195Z,82.31
2019-03-01T00:31:56.142Z,82.03
2019-03-01T00:32:56.112Z,82.21
2019-03-01T00:33:56.047Z,81.36
2019-03-01T00:34:55.992Z,82.41
2019-03-01T00:35:55.943Z,82.50
2019-03-01T00:36:55.892Z,82.12
2019-03-01T00:37:55.846Z,82.31
2019-03-01T00:38:55.792Z,82.03
2019-03-01T00:39:55.747Z,81.74
2019-03-01T00:40:55.697Z,81.93
2019-03-01T00:41:55.659Z,82.12
2019-03-01T00:42:55.591Z,81.07
2019-03-01T00:43:55.543Z,82.12
2019-03-01T00:44:55.497Z,82.03
2019-03-01T00:45:55.443Z,82.03
2019-03-01T00:46:55.394Z,81.84
2019-03-01T00:47:55.348Z,82.31
2019-03-01T00:48:55.295Z,82.41
2019-03-01T00:49:55.246Z,82.50
2019-03-01T00:50:55.197Z,82.50
2019-03-01T00:51:55.152Z,82.21
2019-03-01T00:52:55.097Z,82.21
2019-03-01T00:53:55.052Z,82.12
2019-03-01T00:54:54.999Z,82.69
2019-03-01T00:55:54.948Z,82.69
2019-03-01T00:56:54.898Z,82.50
2019-03-01T00:57:54.850Z,82.69
2019-03-01T00:58:54.799Z,82.69
2019-03-01T00:59:54.748Z,82.79
2019-03-01T01:00:54.695Z,82.79
2019-03-01T01:01:54.651Z,82.98
2019-03-01T01:02:54.594Z,83.07
2019-03-01T01:03:54.545Z,83.26
2019-03-01T01:04:54.499Z,83.07
2019-03-01T01:05:54.451Z,83.26
2019-03-01T01:06:54.395Z,83.07
2019-03-01T01:07:54.345Z,82.69
2019-03-01T01:08:54.295Z,82.98
2019-03-01T01:09:54.249Z,82.98
2019-03-01T01:10:54.198Z,82.98
2019-03-01T01:11:54.146Z,82.98
2019-03-01T01:12:54.097Z,82.75
2019-03-01T01:13:54.048Z,82.89
2019-03-01T01:14:53.997Z,82.79
2019-03-01T01:15:53.951Z,82.98
2019-03-01T01:16:53.906Z,83.26
2019-03-01T01:17:53.849Z,83.22
2019-03-01T01:18:53.800Z,83.22
2019-03-01T01:19:53.790Z,83.13
2019-03-01T01:20:53.746Z,82.89
2019-03-01T01:21:53.649Z,83.32
2019-03-01T01:22:53.596Z,83.22
2019-03-01T01:23:53.547Z,83.22
2019-03-01T01:24:53.498Z,83.32
2019-03-01T01:25:53.448Z,83.13
2019-03-01T01:26:53.402Z,83.51
2019-03-01T01:27:53.367Z,83.80
2019-03-01T01:28:53.296Z,83.80
2019-03-01T01:29:53.249Z,84.17
2019-03-01T01:30:53.200Z,84.17
2019-03-01T01:31:53.391Z,84.17
2019-03-01T01:32:53.099Z,84.17
2019-03-01T01:33:53.048Z,84.27
2019-03-01T01:34:53.072Z,84.27
2019-03-01T01:35:52.946Z,85.13
2019-03-01T01:36:52.898Z,85.89
2019-03-01T01:37:52.846Z,85.89
2019-03-01T01:38:52.803Z,85.60
2019-03-01T01:39:52.746Z,85.99
2019-03-01T01:40:52.897Z,86.84
2019-03-01T01:41:52.647Z,87.51
2019-03-01T01:42:52.596Z,87.13
2019-03-01T01:43:52.548Z,87.89
2019-03-01T01:44:52.504Z,87.70
2019-03-01T01:45:52.452Z,87.70
2019-03-01T01:46:52.397Z,87.89
2019-03-01T01:47:52.347Z,87.79
2019-03-01T01:48:52.299Z,87.89
2019-03-01T01:49:52.403Z,87.70
2019-03-01T01:50:52.200Z,88.08
2019-03-01T01:51:52.152Z,88.08
2019-03-01T01:52:52.102Z,88.56
2019-03-01T01:53:52.049Z,88.46
2019-03-01T01:54:52.003Z,89.03
2019-03-01T01:55:51.947Z,89.13
2019-03-01T01:56:51.896Z,89.65
2019-03-01T01:57:51.847Z,90.75
2019-03-01T01:58:51.967Z,91.22
2019-03-01T01:59:51.749Z,92.22
2019-03-01T02:00:51.898Z,93.94
2019-03-01T02:01:51.646Z,94.42
2019-03-01T02:02:51.602Z,96.31
2019-03-01T02:03:51.546Z,96.31
2019-03-01T02:04:51.503Z,97.84
2019-03-01T02:05:51.456Z,98.79
2019-03-01T02:06:51.393Z,99.17
2019-03-01T02:07:51.349Z,99.98
2019-03-01T02:08:51.297Z,99.99
2019-03-01T02:09:51.245Z,99.99
2019-03-01T02:10:51.197Z,99.99
2019-03-01T02:11:51.141Z,99.99
2019-03-01T02:12:51.095Z,99.99
2019-03-01T02:13:51.219Z,99.99
2019-03-01T02:14:50.993Z,99.99
2019-03-01T02:15:50.945Z,99.99
2019-03-01T02:16:50.891Z,99.99
2019-03-01T02:17:50.848Z,99.99
2019-03-01T02:18:57.530Z,99.99
2019-03-01T02:19:50.738Z,99.99
2019-03-01T02:20:50.690Z,99.99
2019-03-01T02:21:50.638Z,99.99
2019-03-01T02:22:50.592Z,99.99
2019-03-01T02:23:50.534Z,99.99
2019-03-01T02:24:50.492Z,99.99
2019-03-01T02:25:50.612Z,99.99
2019-03-01T02:26:50.390Z,99.99
2019-03-01T02:27:50.335Z,99.99
2019-03-01T02:28:56.898Z,99.99
2019-03-01T02:29:50.235Z,99.99
2019-03-01T02:30:50.184Z,99.99
2019-03-01T02:31:50.134Z,99.99
2019-03-01T02:32:50.140Z,99.99
2019-03-01T02:33:50.035Z,99.99
2019-03-01T02:34:50.220Z,99.99
2019-03-01T02:35:49.934Z,99.99
2019-03-01T02:36:49.887Z,99.99
2019-03-01T02:37:49.831Z,99.99
2019-03-01T02:38:49.798Z,99.88
2019-03-01T02:39:49.729Z,99.31
2019-03-01T02:40:49.679Z,99.98
2019-03-01T02:41:49.672Z,99.99
2019-03-01T02:42:49.577Z,99.88
2019-03-01T02:43:49.730Z,99.99
2019-03-01T02:44:49.478Z,99.88
2019-03-01T02:45:49.429Z,99.31
2019-03-01T02:46:49.378Z,98.36
2019-03-01T02:47:49.326Z,98.55
2019-03-01T02:48:49.278Z,98.36
2019-03-01T02:49:49.240Z,98.17
2019-03-01T02:50:49.174Z,98.93
2019-03-01T02:51:49.126Z,99.69
2019-03-01T02:52:49.103Z,99.41
2019-03-01T02:53:49.023Z,99.60
2019-03-01T02:54:49.001Z,99.99
2019-03-01T02:55:48.921Z,99.99
2019-03-01T02:56:49.033Z,99.99
2019-03-01T02:57:48.821Z,99.99
2019-03-01T02:58:48.770Z,99.99
2019-03-01T02:59:48.784Z,99.99
2019-03-01T03:00:48.678Z,99.99
2019-03-01T03:01:48.618Z,99.99
2019-03-01T03:02:48.566Z,99.99
2019-03-01T03:03:48.515Z,99.99
2019-03-01T03:04:48.468Z,99.99
2019-03-01T03:05:48.476Z,99.99
2019-03-01T03:06:48.369Z,99.99
2019-03-01T03:07:48.326Z,99.99
2019-03-01T03:08:48.263Z,99.99
2019-03-01T03:09:48.222Z,99.99
2019-03-01T03:10:48.161Z,99.99
2019-03-01T03:11:48.345Z,99.99
2019-03-01T03:12:48.060Z,99.99
2019-03-01T03:13:48.012Z,99.99
2019-03-01T03:14:48.016Z,99.99
2019-03-01T03:15:47.909Z,99.99
2019-03-01T03:16:47.857Z,99.99
2019-03-01T03:17:47.807Z,99.99
2019-03-01T03:18:47.759Z,99.99
2019-03-01T03:19:47.713Z,99.99
2019-03-01T03:20:47.677Z,99.99
2019-03-01T03:21:47.607Z,99.99
2019-03-01T03:22:47.762Z,99.99
2019-03-01T03:23:47.499Z,99.99
2019-03-01T03:24:47.484Z,99.99
2019-03-01T03:25:47.415Z,99.99
2019-03-01T03:26:48.581Z,99.99
2019-03-01T03:27:47.299Z,99.99
2019-03-01T03:28:47.250Z,99.99
2019-03-01T03:29:47.197Z,99.99
2019-03-01T03:30:47.162Z,99.99
2019-03-01T03:31:47.107Z,99.99
2019-03-01T03:32:47.044Z,99.99
2019-03-01T03:33:47.013Z,99.99
2019-03-01T03:34:46.985Z,99.99
2019-03-01T03:35:47.055Z,99.99
2019-03-01T03:36:46.840Z,99.99
2019-03-01T03:37:46.796Z,99.99
2019-03-01T03:38:46.751Z,99.99
2019-03-01T03:39:46.686Z,99.99
2019-03-01T03:40:46.635Z,99.99
2019-03-01T03:41:46.585Z,99.99
2019-03-01T03:42:46.533Z,99.99
2019-03-01T03:43:46.483Z,99.99
2019-03-01T03:44:46.432Z,99.99
2019-03-01T03:45:46.382Z,99.99
2019-03-01T03:46:46.346Z,99.99
2019-03-01T03:47:46.294Z,99.99
2019-03-01T03:48:46.468Z,99.99
2019-03-01T03:49:46.178Z,99.99
2019-03-01T03:50:46.127Z,99.99
2019-03-01T03:51:46.116Z,99.99
2019-03-01T03:52:46.023Z,99.99
2019-03-01T03:53:45.971Z,99.99
2019-03-01T03:54:45.924Z,99.99
2019-03-01T03:55:45.870Z,99.99
2019-03-01T03:56:45.820Z,99.99
2019-03-01T03:57:45.770Z,99.99
2019-03-01T03:58:45.774Z,99.99
2019-03-01T03:59:45.872Z,99.99
2019-03-01T04:00:45.664Z,99.99
2019-03-01T04:01:45.566Z,99.99
2019-03-01T04:02:45.578Z,99.99
2019-03-01T04:03:45.463Z,99.99
2019-03-01T04:04:45.412Z,99.99
2019-03-01T04:05:45.362Z,99.99
2019-03-01T04:06:45.308Z,99.99
2019-03-01T04:07:45.259Z,99.99
2019-03-01T04:08:45.378Z,99.99
2019-03-01T04:09:45.157Z,99.99
2019-03-01T04:10:45.123Z,99.99
2019-03-01T04:11:45.124Z,99.99
2019-03-01T04:12:45.008Z,99.99
2019-03-01T04:13:44.953Z,99.99
2019-03-01T04:14:44.901Z,99.99
2019-03-01T04:15:44.852Z,99.99
2019-03-01T04:16:44.815Z,99.99
2019-03-01T04:17:44.750Z,99.99
2019-03-01T04:18:44.705Z,99.99
2019-03-01T04:19:44.886Z,99.99
2019-03-01T04:20:44.593Z,99.99
2019-03-01T04:21:44.543Z,99.99
2019-03-01T04:22:44.584Z,99.99
2019-03-01T04:23:44.473Z,99.99
2019-03-01T04:24:44.390Z,99.99
2019-03-01T04:25:44.338Z,99.99
2019-03-01T04:26:44.287Z,99.99
2019-03-01T04:27:44.234Z,99.99
2019-03-01T04:28:44.184Z,99.99
2019-03-01T04:29:44.134Z,99.99
2019-03-01T04:30:44.101Z,99.99
2019-03-01T04:31:44.034Z,99.99
2019-03-01T04:32:44.205Z,99.99
2019-03-01T04:33:43.930Z,99.99
2019-03-01T04:34:43.875Z,99.99
2019-03-01T04:35:43.825Z,99.99
2019-03-01T04:36:43.774Z,99.99
2019-03-01T04:37:43.723Z,99.99
2019-03-01T04:38:43.671Z,99.99
2019-03-01T04:39:43.619Z,99.99
2019-03-01T04:40:43.572Z,99.99
2019-03-01T04:41:43.564Z,99.99
2019-03-01T04:42:43.468Z,99.99
2019-03-01T04:43:43.602Z,99.99
2019-03-01T04:44:43.363Z,99.99
2019-03-01T04:45:43.313Z,99.99
2019-03-01T04:46:43.312Z,99.99
2019-03-01T04:47:43.212Z,99.99
2019-03-01T04:48:43.158Z,99.99
2019-03-01T04:49:43.107Z,99.99
2019-03-01T04:50:43.056Z,99.99
2019-03-01T04:51:43.004Z,99.99
2019-03-01T04:52:43.117Z,99.99
2019-03-01T04:53:42.902Z,99.99
2019-03-01T04:54:42.849Z,99.99
2019-03-01T04:55:42.797Z,99.99
2019-03-01T04:56:42.747Z,99.99
2019-03-01T04:57:42.696Z,99.99
2019-03-01T04:58:42.643Z,99.99
2019-03-01T04:59:42.594Z,99.99
2019-03-01T05:00:42.542Z,99.99
2019-03-01T05:01:42.507Z,99.99
2019-03-01T05:02:42.439Z,99.99
2019-03-01T05:03:42.603Z,99.99
2019-03-01T05:04:42.335Z,99.99
2019-03-01T05:05:42.284Z,99.99
2019-03-01T05:06:42.232Z,99.99
2019-03-01T05:07:42.181Z,99.99
2019-03-01T05:08:42.130Z,99.99
2019-03-01T05:09:42.083Z,99.99
2019-03-01T05:10:42.044Z,99.99
2019-03-01T05:11:41.976Z,99.99
2019-03-01T05:12:42.126Z,99.99
2019-03-01T05:13:41.875Z,99.99
2019-03-01T05:14:41.821Z,99.99
2019-03-01T05:15:41.770Z,99.99
2019-03-01T05:16:41.719Z,99.99
2019-03-01T05:17:41.668Z,99.99
2019-03-01T05:18:41.619Z,99.99
2019-03-01T05:19:41.739Z,99.99
2019-03-01T05:20:41.531Z,99.99
2019-03-01T05:21:41.463Z,99.99
2019-03-01T05:22:41.509Z,99.99
2019-03-01T05:23:41.363Z,99.99
2019-03-01T05:24:41.309Z,99.99
2019-03-01T05:25:41.262Z,99.99
2019-03-01T05:26:41.205Z,99.99
2019-03-01T05:27:41.154Z,99.99
2019-03-01T05:28:41.102Z,99.99
2019-03-01T05:29:41.052Z,99.99
2019-03-01T05:30:41.224Z,99.99
2019-03-01T05:31:40.950Z,99.99
2019-03-01T05:32:40.901Z,99.99
2019-03-01T05:33:40.847Z,99.99
2019-03-01T05:34:40.874Z,99.99
2019-03-01T05:35:40.742Z,99.99
2019-03-01T05:36:40.691Z,99.99
2019-03-01T05:37:40.641Z,99.99
2019-03-01T05:38:40.589Z,99.99
2019-03-01T05:39:40.539Z,99.99
2019-03-01T05:40:40.485Z,99.99
2019-03-01T05:41:40.455Z,99.99
2019-03-01T05:42:40.382Z,99.99
2019-03-01T05:43:40.535Z,99.99
2019-03-01T05:44:40.280Z,99.99
2019-03-01T05:45:40.229Z,99.99
2019-03-01T05:46:40.237Z,99.99
2019-03-01T05:47:40.125Z,99.99
2019-03-01T05:48:40.072Z,99.99
2019-03-01T05:49:40.024Z,99.99
2019-03-01T05:50:39.972Z,99.99
2019-03-01T05:51:39.922Z,99.99
2019-03-01T05:52:39.872Z,99.99
2019-03-01T05:53:39.820Z,99.99
2019-03-01T05:54:39.944Z,99.99
2019-03-01T05:55:39.714Z,99.99
2019-03-01T05:56:39.667Z,99.99
2019-03-01T05:57:39.623Z,99.99
2019-03-01T05:58:39.564Z,99.99
2019-03-01T05:59:39.513Z,99.99
2019-03-01T06:00:39.461Z,99.99
2019-03-01T06:01:39.423Z,99.99
2019-03-01T06:02:39.354Z,99.99
2019-03-01T06:03:39.546Z,99.99
2019-03-01T06:04:39.255Z,99.99
2019-03-01T06:05:39.216Z,99.99
2019-03-01T06:06:39.246Z,99.99
2019-03-01T06:07:39.101Z,99.99
2019-03-01T06:08:39.046Z,99.99
2019-03-01T06:09:38.998Z,99.99
2019-03-01T06:10:38.963Z,99.99
2019-03-01T06:11:38.901Z,99.99
2019-03-01T06:12:38.856Z,99.99
2019-03-01T06:13:38.800Z,99.99
2019-03-01T06:14:38.740Z,99.99
2019-03-01T06:15:38.691Z,99.99
2019-03-01T06:16:40.133Z,99.99
2019-03-01T06:17:38.589Z,99.99
2019-03-01T06:18:38.537Z,99.99
2019-03-01T06:19:38.493Z,99.99
2019-03-01T06:20:38.436Z,99.99
2019-03-01T06:21:38.440Z,99.99
2019-03-01T06:22:38.332Z,99.99
2019-03-01T06:23:38.280Z,99.99
2019-03-01T06:24:38.243Z,99.99
2019-03-01T06:25:38.176Z,99.99
2019-03-01T06:26:38.139Z,99.99
2019-03-01T06:27:38.074Z,99.99
2019-03-01T06:28:38.028Z,99.99
2019-03-01T06:29:37.978Z,99.99
2019-03-01T06:30:37.926Z,99.99
2019-03-01T06:31:37.868Z,99.99
2019-03-01T06:32:37.818Z,99.99
2019-03-01T06:33:37.766Z,99.99
2019-03-01T06:34:37.711Z,99.99
2019-03-01T06:35:37.763Z,99.99
2019-03-01T06:36:37.629Z,99.99
2019-03-01T06:37:37.653Z,99.99
2019-03-01T06:38:37.516Z,99.99
2019-03-01T06:39:37.462Z,99.99
2019-03-01T06:40:37.413Z,99.99
2019-03-01T06:41:37.363Z,99.99
2019-03-01T06:42:37.312Z,99.99
2019-03-01T06:43:37.258Z,99.99
2019-03-01T06:44:37.204Z,99.99
2019-03-01T06:45:37.361Z,99.99
2019-03-01T06:46:37.161Z,99.99
2019-03-01T06:47:37.048Z,99.99
2019-03-01T06:48:36.998Z,99.99
2019-03-01T06:49:36.947Z,99.99
2019-03-01T06:50:36.895Z,99.99
2019-03-01T06:51:36.843Z,99.99
2019-03-01T06:52:36.785Z,99.99
2019-03-01T06:53:36.945Z,99.99
2019-03-01T06:54:36.691Z,99.99
2019-03-01T06:55:36.639Z,99.99
2019-03-01T06:56:36.623Z,99.99
2019-03-01T06:57:36.539Z,99.99
2019-03-01T06:58:36.488Z,99.99
2019-03-01T06:59:36.436Z,99.99
2019-03-01T07:00:36.392Z,99.99
2019-03-01T07:01:36.337Z,99.99
2019-03-01T07:02:36.287Z,99.99
2019-03-01T07:03:36.236Z,99.99
2019-03-01T07:04:36.189Z,99.99
2019-03-01T07:05:36.139Z,99.99
2019-03-01T07:06:36.077Z,99.99
2019-03-01T07:07:36.033Z,99.99
2019-03-01T07:08:36.005Z,99.99
2019-03-01T07:09:36.006Z,99.99
2019-03-01T07:10:35.884Z,99.99
2019-03-01T07:11:35.885Z,99.99
2019-03-01T07:12:35.808Z,99.99
2019-03-01T07:13:35.731Z,99.99
2019-03-01T07:14:35.701Z,99.99
2019-03-01T07:15:35.650Z,99.99
2019-03-01T07:16:36.454Z,99.99
2019-03-01T07:17:35.614Z,99.99
2019-03-01T07:18:35.481Z,99.99
2019-03-01T07:19:35.469Z,99.99
2019-03-01T07:22:06.989Z,99.99
2019-03-01T07:23:06.886Z,99.99
2019-03-01T07:24:06.899Z,99.99
2019-03-01T07:25:07.760Z,99.99
2019-03-01T07:26:07.437Z,99.99
2019-03-01T07:27:06.678Z,99.99
2019-03-01T07:28:06.642Z,99.99
2019-03-01T07:29:07.535Z,99.99
2019-03-01T07:30:06.533Z,99.99
2019-03-01T07:31:07.244Z,99.99
2019-03-01T07:32:06.458Z,99.99
2019-03-01T07:33:06.378Z,99.99
2019-03-01T07:34:06.998Z,99.99
2019-03-01T07:35:07.309Z,99.99
2019-03-01T07:36:06.255Z,99.99
2019-03-01T07:37:06.162Z,99.99
2019-03-01T07:38:06.125Z,99.99
2019-03-01T07:39:06.072Z,99.99
2019-03-01T07:40:06.007Z,99.99
2019-03-01T07:41:05.957Z,99.99
2019-03-01T07:42:05.904Z,99.99
2019-03-01T07:43:07.720Z,99.99
2019-03-01T07:44:05.807Z,99.99
2019-03-01T07:45:05.804Z,99.99
2019-03-01T07:46:05.707Z,99.99
2019-03-01T07:47:05.647Z,99.99
2019-03-01T07:48:05.602Z,99.99
2019-03-01T07:49:05.546Z,99.99
2019-03-01T07:50:33.007Z,99.99
2019-03-01T07:51:05.450Z,99.99
2019-03-01T07:52:05.958Z,99.99
2019-03-01T07:53:05.333Z,99.99
2019-03-01T07:54:05.281Z,99.99
2019-03-01T07:55:05.228Z,99.99
2019-03-01T07:56:05.481Z,99.99
2019-03-01T07:57:05.116Z,99.99
2019-03-01T07:58:05.078Z,99.99
2019-03-01T07:59:05.032Z,99.99
2019-03-01T08:00:04.977Z,99.99
2019-03-01T08:01:04.921Z,99.99
2019-03-01T08:02:05.121Z,99.99
2019-03-01T08:03:04.822Z,99.99
2019-03-01T08:04:04.770Z,99.99
2019-03-01T08:05:05.140Z,99.99
2019-03-01T08:06:04.687Z,99.99
2019-03-01T08:07:04.628Z,99.99
2019-03-01T08:08:04.558Z,99.99
2019-03-01T08:09:04.531Z,99.99
2019-03-01T08:10:04.463Z,99.99
2019-03-01T08:11:04.415Z,99.99
2019-03-01T08:12:07.247Z,99.99
2019-03-01T08:13:04.303Z,99.99
2019-03-01T08:14:04.258Z,99.99
2019-03-01T08:15:07.328Z,99.99
2019-03-01T08:16:04.148Z,99.99
2019-03-01T08:17:04.110Z,99.99
2019-03-01T08:18:04.728Z,99.99
2019-03-01T08:19:04.555Z,99.99
2019-03-01T08:20:04.001Z,99.99
2019-03-01T08:21:06.474Z,99.99
2019-03-01T08:22:03.843Z,99.99
2019-03-01T08:23:03.794Z,99.99
2019-03-01T08:24:03.742Z,99.99
2019-03-01T08:25:03.689Z,99.99
2019-03-01T08:26:03.797Z,99.99
2019-03-01T08:27:06.516Z,99.99
2019-03-01T08:28:03.547Z,99.99
2019-03-01T08:29:03.578Z,99.99
2019-03-01T08:31:35.473Z,99.99
2019-03-01T08:32:35.397Z,99.99
2019-03-01T08:33:43.387Z,99.99
2019-03-01T08:34:35.430Z,99.99
2019-03-01T08:35:35.271Z,99.99
2019-03-01T08:36:38.469Z,99.99
2019-03-01T08:37:35.145Z,99.99
2019-03-01T08:38:35.100Z,99.99
2019-03-01T08:39:36.614Z,99.99
2019-03-01T08:40:34.994Z,99.99
2019-03-01T08:41:34.944Z,99.99
2019-03-01T08:42:36.452Z,99.99
2019-03-01T08:43:35.806Z,99.99
2019-03-01T08:44:34.794Z,99.99
2019-03-01T08:45:34.738Z,99.99
2019-03-01T08:46:34.688Z,99.99
2019-03-01T08:47:34.644Z,99.99
2019-03-01T08:48:34.832Z,99.99
2019-03-01T08:49:34.546Z,99.99
2019-03-01T08:50:34.494Z,99.99
2019-03-01T08:51:34.433Z,99.99
2019-03-01T08:52:37.161Z,99.99
2019-03-01T08:53:34.336Z,99.99
2019-03-01T08:54:34.280Z,99.99
2019-03-01T08:55:35.517Z,99.99
2019-03-01T08:56:34.183Z,99.99
2019-03-01T08:57:43.810Z,99.99
2019-03-01T08:58:34.084Z,99.99
2019-03-01T08:59:34.043Z,99.99
2019-03-01T09:00:33.981Z,99.99
2019-03-01T09:01:33.931Z,99.99
2019-03-01T09:02:33.879Z,99.99
2019-03-01T09:03:33.840Z,99.99
2019-03-01T09:04:37.802Z,99.99
2019-03-01T09:05:33.726Z,99.99
2019-03-01T09:06:33.692Z,99.99
2019-03-01T09:07:33.631Z,99.99
2019-03-01T09:08:33.579Z,99.99
2019-03-01T09:09:33.531Z,99.99
2019-03-01T09:10:33.676Z,99.99
2019-03-01T09:11:33.425Z,99.99
2019-03-01T09:12:33.388Z,99.99
2019-03-01T09:13:33.322Z,99.99
2019-03-01T09:14:33.270Z,99.99
2019-03-01T09:15:33.211Z,99.99
2019-03-01T09:16:33.175Z,99.99
2019-03-01T09:17:33.119Z,99.99
2019-03-01T09:18:33.974Z,99.99
2019-03-01T09:19:33.021Z,99.99
2019-03-01T09:20:37.704Z,99.99
2019-03-01T09:21:33.075Z,99.99
2019-03-01T09:22:33.767Z,99.99
2019-03-01T09:23:32.825Z,99.99
2019-03-01T09:24:32.791Z,99.99
2019-03-01T09:25:32.714Z,99.99
2019-03-01T09:26:32.664Z,99.99
2019-03-01T09:27:32.624Z,99.99
2019-03-01T09:28:32.692Z,99.99
2019-03-01T09:29:41.233Z,99.99
2019-03-01T09:30:32.464Z,99.99
2019-03-01T09:31:32.411Z,99.99
2019-03-01T09:32:33.813Z,99.99
2019-03-01T09:33:32.315Z,99.99
2019-03-01T09:34:33.024Z,99.99
2019-03-01T09:35:32.383Z,99.99
2019-03-01T09:36:32.169Z,99.99
2019-03-01T09:37:32.517Z,99.99
2019-03-01T09:38:32.056Z,99.99
2019-03-01T09:39:32.764Z,99.99
2019-03-01T09:40:31.961Z,99.99
2019-03-01T09:41:31.904Z,99.99
2019-03-01T09:42:31.854Z,99.99
2019-03-01T09:43:31.839Z,99.99
2019-03-01T09:44:34.605Z,99.99
2019-03-01T09:45:36.243Z,99.99
2019-03-01T09:46:31.653Z,99.99
2019-03-01T09:47:33.513Z,99.99
2019-03-01T09:48:31.549Z,99.99
2019-03-01T09:49:31.498Z,99.99
2019-03-01T09:50:34.272Z,99.99
2019-03-01T09:51:31.399Z,99.99
2019-03-01T09:52:31.346Z,99.99
2019-03-01T09:53:34.115Z,99.99
2019-03-01T09:54:31.250Z,99.99
2019-03-01T09:55:31.187Z,99.99
2019-03-01T09:56:31.167Z,99.99
2019-03-01T09:57:31.094Z,99.99
2019-03-01T09:58:31.062Z,99.99
2019-03-01T09:59:31.021Z,99.99
2019-03-01T10:00:30.970Z,99.99
2019-03-01T10:01:30.890Z,99.99
2019-03-01T10:02:30.863Z,99.99
2019-03-01T10:03:30.813Z,99.99
2019-03-01T10:04:30.766Z,99.99
2019-03-01T10:05:30.722Z,99.99
2019-03-01T10:06:37.872Z,99.99
2019-03-01T10:07:30.600Z,99.99
2019-03-01T10:08:30.526Z,99.99
2019-03-01T10:09:30.487Z,99.99
2019-03-01T10:10:30.435Z,99.99
2019-03-01T10:11:30.386Z,99.99
2019-03-01T10:12:30.350Z,99.99
2019-03-01T10:13:30.501Z,99.99
2019-03-01T10:14:30.233Z,99.99
2019-03-01T10:15:30.182Z,99.99
2019-03-01T10:16:30.132Z,99.99
2019-03-01T10:17:30.088Z,99.99
2019-03-01T10:18:30.031Z,99.99
2019-03-01T10:19:29.988Z,99.99
2019-03-01T10:20:29.996Z,99.99
2019-03-01T10:21:29.878Z,99.99
2019-03-01T10:22:29.829Z,99.99
2019-03-01T10:23:29.781Z,99.99
2019-03-01T10:24:29.730Z,99.99
2019-03-01T10:25:29.676Z,99.99
2019-03-01T10:26:29.634Z,99.99
2019-03-01T10:27:29.584Z,99.99
2019-03-01T10:28:29.534Z,99.99
2019-03-01T10:29:29.534Z,99.99
2019-03-01T10:30:29.493Z,99.99
2019-03-01T10:31:29.367Z,99.99
2019-03-01T10:32:29.340Z,99.99
2019-03-01T10:33:29.291Z,99.99
2019-03-01T10:34:29.226Z,99.99
2019-03-01T10:35:29.171Z,99.99
2019-03-01T10:36:29.138Z,99.99
2019-03-01T10:37:29.071Z,99.99
2019-03-01T10:38:29.020Z,99.99
2019-03-01T10:39:29.019Z,99.99
2019-03-01T10:40:28.924Z,99.99
2019-03-01T10:41:28.902Z,99.99
2019-03-01T10:42:28.821Z,99.99
2019-03-01T10:43:28.771Z,99.99
2019-03-01T10:44:28.719Z,99.99
2019-03-01T10:45:28.668Z,99.99
2019-03-01T10:46:28.618Z,99.99
2019-03-01T10:47:28.571Z,99.99
2019-03-01T10:48:28.521Z,99.99
2019-03-01T10:49:28.466Z,99.99
2019-03-01T10:50:28.418Z,99.99
2019-03-01T10:51:28.373Z,99.99
2019-03-01T10:52:28.316Z,99.99
2019-03-01T10:53:28.271Z,99.99
2019-03-01T10:54:28.215Z,99.99
2019-03-01T10:55:28.174Z,99.99
2019-03-01T10:56:28.330Z,99.99
2019-03-01T10:57:28.076Z,99.99
2019-03-01T10:58:28.013Z,99.99
2019-03-01T10:59:27.971Z,99.99
2019-03-01T11:00:27.958Z,99.99
2019-03-01T11:01:27.862Z,99.99
2019-03-01T11:02:27.813Z,99.99
2019-03-01T11:03:27.760Z,99.99
2019-03-01T11:04:27.708Z,99.99
2019-03-01T11:05:27.660Z,99.99
2019-03-01T11:06:27.613Z,99.99
2019-03-01T11:07:27.564Z,99.99
2019-03-01T11:08:27.509Z,99.99
2019-03-01T11:09:27.459Z,99.99
2019-03-01T11:10:27.408Z,99.99
2019-03-01T11:11:27.355Z,99.99
2019-03-01T11:12:27.304Z,99.99
2019-03-01T11:13:27.276Z,99.99
2019-03-01T11:14:27.277Z,99.99
2019-03-01T11:15:27.244Z,99.99
2019-03-01T11:16:27.221Z,99.99
2019-03-01T11:17:27.053Z,99.99
2019-03-01T11:18:27.006Z,99.99
2019-03-01T11:19:26.958Z,99.99
2019-03-01T11:20:26.905Z,99.99
2019-03-01T11:21:26.848Z,99.99
2019-03-01T11:22:26.798Z,99.99
2019-03-01T11:23:26.746Z,99.99
2019-03-01T11:24:26.697Z,99.99
2019-03-01T11:25:26.647Z,99.99
2019-03-01T11:26:26.595Z,99.99
2019-03-01T11:27:26.544Z,99.99
2019-03-01T11:28:26.592Z,99.99
2019-03-01T11:29:26.453Z,99.99
2019-03-01T11:30:26.394Z,99.99
2019-03-01T11:31:26.342Z,99.99
2019-03-01T11:32:26.290Z,99.99
2019-03-01T11:33:26.241Z,99.99
2019-03-01T11:34:26.189Z,99.99
2019-03-01T11:35:26.140Z,99.99
2019-03-01T11:36:26.249Z,99.99
2019-03-01T11:37:26.044Z,99.99
2019-03-01T11:38:25.986Z,99.99
2019-03-01T11:39:25.938Z,99.99
2019-03-01T11:40:25.885Z,99.99
2019-03-01T11:41:25.834Z,99.99
2019-03-01T11:42:25.791Z,99.99
2019-03-01T11:43:25.734Z,99.99
2019-03-01T11:44:25.681Z,99.99
2019-03-01T11:45:25.630Z,99.99
2019-03-01T11:46:25.577Z,99.99
2019-03-01T11:47:25.532Z,99.99
2019-03-01T11:48:25.477Z,99.99
2019-03-01T11:49:25.523Z,99.99
2019-03-01T11:50:25.397Z,99.99
2019-03-01T11:51:25.329Z,99.99
2019-03-01T11:52:25.275Z,99.99
2019-03-01T11:53:25.228Z,99.99
2019-03-01T11:54:25.178Z,99.99
2019-03-01T11:55:25.125Z,99.99
2019-03-01T11:56:25.074Z,99.99
2019-03-01T11:57:25.035Z,99.99
2019-03-01T11:58:24.975Z,99.99
2019-03-01T11:59:24.923Z,99.99
2019-03-01T12:00:24.871Z,99.99
2019-03-01T12:01:24.822Z,99.99
2019-03-01T12:02:24.770Z,99.99
2019-03-01T12:03:24.720Z,99.99
2019-03-01T12:04:24.670Z,99.99
2019-03-01T12:05:24.623Z,99.99
2019-03-01T12:06:24.572Z,99.99
2019-03-01T12:07:24.520Z,99.99
2019-03-01T12:08:24.467Z,99.99
2019-03-01T12:09:24.417Z,99.99
2019-03-01T12:10:24.366Z,99.99
2019-03-01T12:11:24.321Z,99.99
2019-03-01T12:12:24.265Z,99.99
2019-03-01T12:13:24.218Z,99.99
2019-03-01T12:14:24.167Z,99.99
2019-03-01T12:15:24.119Z,99.99
2019-03-01T12:16:24.065Z,99.99
2019-03-01T12:17:24.013Z,99.99
2019-03-01T12:18:23.968Z,99.99
2019-03-01T12:19:23.920Z,99.99
2019-03-01T12:20:23.869Z,99.99
2019-03-01T12:21:23.819Z,99.99
2019-03-01T12:22:23.770Z,99.99
2019-03-01T12:23:23.713Z,99.99
2019-03-01T12:24:23.663Z,99.99
2019-03-01T12:25:23.611Z,99.99
2019-03-01T12:26:23.560Z,99.99
2019-03-01T12:27:23.512Z,99.99
2019-03-01T12:28:23.462Z,99.99
2019-03-01T12:29:23.417Z,99.99
2019-03-01T12:30:23.361Z,99.99
2019-03-01T12:31:23.312Z,99.99
2019-03-01T12:32:23.260Z,99.99
2019-03-01T12:33:23.213Z,99.99
2019-03-01T12:34:23.164Z,99.99
2019-03-01T12:35:23.113Z,99.99
2019-03-01T12:36:23.198Z,99.99
2019-03-01T12:37:23.019Z,99.99
2019-03-01T12:38:22.961Z,99.99
2019-03-01T12:39:22.911Z,99.99
2019-03-01T12:40:22.859Z,99.99
2019-03-01T12:41:22.841Z,99.99
2019-03-01T12:42:22.793Z,99.99
2019-03-01T12:43:22.725Z,99.99
2019-03-01T12:44:22.658Z,99.99
2019-03-01T12:45:22.610Z,99.99
2019-03-01T12:46:22.559Z,99.99
2019-03-01T12:47:22.517Z,99.99
2019-03-01T12:48:22.459Z,99.99
2019-03-01T12:49:22.409Z,99.99
2019-03-01T12:50:22.359Z,99.99
2019-03-01T12:51:22.323Z,99.99
2019-03-01T12:52:22.258Z,99.99
2019-03-01T12:53:22.209Z,99.99
2019-03-01T12:54:22.156Z,99.99
2019-03-01T12:55:22.107Z,99.99